sensor_id;sensor_type;location;lat;lon;timestamp;temperature;humidity
12307;DHT22;6216;51.146;7.008;2024-01-11T00:01:17;-0.20;99.90
12307;DHT22;6216;51.146;7.008;2024-01-11T00:03:45;-0.20;99.90
12307;DHT22;6216;51.146;7.008;2024-01-11T00:06:14;-0.20;99.90
12307;DHT22;6216;51.146;7.008;2024-01-11T00:08:43;-0.30;99.90
12307;DHT22;6216;51.146;7.008;2024-01-11T00:11:11;-0.30;99.90
12307;DHT22;6216;51.146;7.008;2024-01-11T00:13:42;-0.30;99.90
12307;DHT22;6216;51.146;7.008;2024-01-11T00:16:10;-0.40;99.90
12307;DHT22;6216;51.146;7.008;2024-01-11T00:18:38;-0.30;99.90
12307;DHT22;6216;51.146;7.008;2024-01-11T00:21:06;-0.20;99.90
12307;DHT22;6216;51.146;7.008;2024-01-11T00:23:35;-0.20;99.90
12307;DHT22;6216;51.146;7.008;2024-01-11T00:26:04;-0.10;99.90
12307;DHT22;6216;51.146;7.008;2024-01-11T00:28:32;0.00;99.90
12307;DHT22;6216;51.146;7.008;2024-01-11T00:30:59;-0.10;99.90
12307;DHT22;6216;51.146;7.008;2024-01-11T00:33:27;-0.10;99.90
12307;DHT22;6216;51.146;7.008;2024-01-11T00:35:56;-0.10;99.90
12307;DHT22;6216;51.146;7.008;2024-01-11T00:38:23;-0.10;99.90
12307;DHT22;6216;51.146;7.008;2024-01-11T00:40:53;-0.10;99.90
12307;DHT22;6216;51.146;7.008;2024-01-11T00:43:21;0.00;99.90
12307;DHT22;6216;51.146;7.008;2024-01-11T00:45:49;-0.10;99.90
12307;DHT22;6216;51.146;7.008;2024-01-11T00:48:17;-0.10;99.90
12307;DHT22;6216;51.146;7.008;2024-01-11T00:50:45;-0.20;99.90
12307;DHT22;6216;51.146;7.008;2024-01-11T00:53:13;-0.10;99.90
12307;DHT22;6216;51.146;7.008;2024-01-11T00:55:41;-0.10;99.90
12307;DHT22;6216;51.146;7.008;2024-01-11T00:58:11;-0.10;99.90
12307;DHT22;6216;51.146;7.008;2024-01-11T01:00:39;-0.20;99.90
12307;DHT22;6216;51.146;7.008;2024-01-11T01:03:07;-0.30;99.90
12307;DHT22;6216;51.146;7.008;2024-01-11T01:05:35;-0.40;99.90
12307;DHT22;6216;51.146;7.008;2024-01-11T01:08:03;-0.40;99.90
12307;DHT22;6216;51.146;7.008;2024-01-11T01:10:31;-0.40;99.90
12307;DHT22;6216;51.146;7.008;2024-01-11T01:12:59;-0.40;99.90
12307;DHT22;6216;51.146;7.008;2024-01-11T01:15:28;-0.40;99.90
12307;DHT22;6216;51.146;7.008;2024-01-11T01:17:56;-0.40;99.90
12307;DHT22;6216;51.146;7.008;2024-01-11T01:20:25;-0.40;99.90
12307;DHT22;6216;51.146;7.008;2024-01-11T01:22:53;-0.40;99.90
12307;DHT22;6216;51.146;7.008;2024-01-11T01:25:21;-0.40;99.90
12307;DHT22;6216;51.146;7.008;2024-01-11T01:27:48;-0.40;99.90
12307;DHT22;6216;51.146;7.008;2024-01-11T01:30:16;-0.30;99.90
12307;DHT22;6216;51.146;7.008;2024-01-11T01:32:46;-0.20;99.90
12307;DHT22;6216;51.146;7.008;2024-01-11T01:35:14;-0.10;99.90
12307;DHT22;6216;51.146;7.008;2024-01-11T01:37:42;-0.10;99.90
12307;DHT22;6216;51.146;7.008;2024-01-11T01:40:11;-0.10;99.90
12307;DHT22;6216;51.146;7.008;2024-01-11T01:42:42;-0.10;99.90
12307;DHT22;6216;51.146;7.008;2024-01-11T01:45:10;-0.10;99.90
12307;DHT22;6216;51.146;7.008;2024-01-11T01:47:40;-0.10;99.90
12307;DHT22;6216;51.146;7.008;2024-01-11T01:50:11;-0.10;99.90
12307;DHT22;6216;51.146;7.008;2024-01-11T01:52:41;-0.10;99.90
12307;DHT22;6216;51.146;7.008;2024-01-11T01:55:10;-0.20;99.90
12307;DHT22;6216;51.146;7.008;2024-01-11T01:57:40;-0.20;99.90
12307;DHT22;6216;51.146;7.008;2024-01-11T02:00:09;-0.30;99.90
12307;DHT22;6216;51.146;7.008;2024-01-11T02:02:38;-0.40;99.90
12307;DHT22;6216;51.146;7.008;2024-01-11T02:05:07;-0.30;99.90
12307;DHT22;6216;51.146;7.008;2024-01-11T02:07:37;-0.30;99.90
12307;DHT22;6216;51.146;7.008;2024-01-11T02:10:07;-0.20;99.90
12307;DHT22;6216;51.146;7.008;2024-01-11T02:12:35;-0.20;99.90
12307;DHT22;6216;51.146;7.008;2024-01-11T02:15:04;-0.20;99.90
12307;DHT22;6216;51.146;7.008;2024-01-11T02:17:32;-0.20;99.90
12307;DHT22;6216;51.146;7.008;2024-01-11T02:20:01;-0.20;99.90
12307;DHT22;6216;51.146;7.008;2024-01-11T02:22:34;-0.20;99.90
12307;DHT22;6216;51.146;7.008;2024-01-11T02:25:05;-0.20;99.90
12307;DHT22;6216;51.146;7.008;2024-01-11T02:27:45;-0.20;99.90
12307;DHT22;6216;51.146;7.008;2024-01-11T02:30:13;-0.20;99.90
12307;DHT22;6216;51.146;7.008;2024-01-11T02:32:43;-0.30;99.90
12307;DHT22;6216;51.146;7.008;2024-01-11T02:35:13;-0.30;99.90
12307;DHT22;6216;51.146;7.008;2024-01-11T02:37:42;-0.40;99.90
12307;DHT22;6216;51.146;7.008;2024-01-11T02:40:13;-0.50;99.90
12307;DHT22;6216;51.146;7.008;2024-01-11T02:42:41;-0.50;99.90
12307;DHT22;6216;51.146;7.008;2024-01-11T02:45:11;-0.60;99.90
12307;DHT22;6216;51.146;7.008;2024-01-11T02:47:38;-0.60;99.90
12307;DHT22;6216;51.146;7.008;2024-01-11T02:50:07;-0.70;99.90
12307;DHT22;6216;51.146;7.008;2024-01-11T02:52:35;-0.80;99.90
12307;DHT22;6216;51.146;7.008;2024-01-11T02:55:03;-0.80;99.90
12307;DHT22;6216;51.146;7.008;2024-01-11T02:57:33;-0.80;99.90
12307;DHT22;6216;51.146;7.008;2024-01-11T03:00:01;-0.70;99.90
12307;DHT22;6216;51.146;7.008;2024-01-11T03:02:29;-0.70;99.90
12307;DHT22;6216;51.146;7.008;2024-01-11T03:04:57;-0.80;99.90
12307;DHT22;6216;51.146;7.008;2024-01-11T03:07:25;-0.90;99.90
12307;DHT22;6216;51.146;7.008;2024-01-11T03:09:53;-0.90;99.90
12307;DHT22;6216;51.146;7.008;2024-01-11T03:12:21;-1.00;99.90
12307;DHT22;6216;51.146;7.008;2024-01-11T03:14:50;-1.00;99.90
12307;DHT22;6216;51.146;7.008;2024-01-11T03:17:18;-1.00;99.90
12307;DHT22;6216;51.146;7.008;2024-01-11T03:19:46;-1.00;99.90
12307;DHT22;6216;51.146;7.008;2024-01-11T03:22:14;-1.00;99.90
12307;DHT22;6216;51.146;7.008;2024-01-11T03:24:42;-1.00;99.90
12307;DHT22;6216;51.146;7.008;2024-01-11T03:27:10;-0.80;99.90
12307;DHT22;6216;51.146;7.008;2024-01-11T03:29:38;-0.80;99.90
12307;DHT22;6216;51.146;7.008;2024-01-11T03:32:07;-0.90;99.90
12307;DHT22;6216;51.146;7.008;2024-01-11T03:34:35;-1.00;99.90
12307;DHT22;6216;51.146;7.008;2024-01-11T03:37:03;-1.10;99.90
12307;DHT22;6216;51.146;7.008;2024-01-11T03:39:31;-1.10;99.90
12307;DHT22;6216;51.146;7.008;2024-01-11T03:41:59;-1.10;99.90
12307;DHT22;6216;51.146;7.008;2024-01-11T03:44:27;-1.10;99.90
12307;DHT22;6216;51.146;7.008;2024-01-11T03:46:55;-1.10;99.90
12307;DHT22;6216;51.146;7.008;2024-01-11T03:49:24;-1.10;99.90
12307;DHT22;6216;51.146;7.008;2024-01-11T03:51:52;-1.10;99.90
12307;DHT22;6216;51.146;7.008;2024-01-11T03:54:20;-1.20;99.90
12307;DHT22;6216;51.146;7.008;2024-01-11T03:56:48;-1.20;99.90
12307;DHT22;6216;51.146;7.008;2024-01-11T03:59:16;-1.20;99.90
12307;DHT22;6216;51.146;7.008;2024-01-11T04:01:44;-1.20;99.90
12307;DHT22;6216;51.146;7.008;2024-01-11T04:04:12;-1.30;99.90
12307;DHT22;6216;51.146;7.008;2024-01-11T04:06:41;-1.30;99.90
12307;DHT22;6216;51.146;7.008;2024-01-11T04:09:09;-1.30;99.90
12307;DHT22;6216;51.146;7.008;2024-01-11T04:11:37;-1.30;99.90
12307;DHT22;6216;51.146;7.008;2024-01-11T04:14:05;-1.30;99.90
12307;DHT22;6216;51.146;7.008;2024-01-11T04:16:33;-1.30;99.90
12307;DHT22;6216;51.146;7.008;2024-01-11T04:19:01;-1.30;99.90
12307;DHT22;6216;51.146;7.008;2024-01-11T04:21:30;-1.20;99.90
12307;DHT22;6216;51.146;7.008;2024-01-11T04:24:00;-1.30;99.90
12307;DHT22;6216;51.146;7.008;2024-01-11T04:26:28;-1.40;99.90
12307;DHT22;6216;51.146;7.008;2024-01-11T04:28:55;-1.40;99.90
12307;DHT22;6216;51.146;7.008;2024-01-11T04:31:26;-1.40;99.90
12307;DHT22;6216;51.146;7.008;2024-01-11T04:33:54;-1.40;99.90
12307;DHT22;6216;51.146;7.008;2024-01-11T04:36:23;-1.40;99.90
12307;DHT22;6216;51.146;7.008;2024-01-11T04:38:51;-1.40;99.90
12307;DHT22;6216;51.146;7.008;2024-01-11T04:41:20;-1.50;99.90
12307;DHT22;6216;51.146;7.008;2024-01-11T04:43:48;-1.40;99.90
12307;DHT22;6216;51.146;7.008;2024-01-11T04:46:17;-1.30;99.90
12307;DHT22;6216;51.146;7.008;2024-01-11T04:48:45;-1.30;99.90
12307;DHT22;6216;51.146;7.008;2024-01-11T04:51:14;-1.30;99.90
12307;DHT22;6216;51.146;7.008;2024-01-11T04:53:43;-1.40;99.90
12307;DHT22;6216;51.146;7.008;2024-01-11T04:56:12;-1.40;99.90
12307;DHT22;6216;51.146;7.008;2024-01-11T04:58:44;-1.40;99.90
12307;DHT22;6216;51.146;7.008;2024-01-11T05:01:13;-1.40;99.90
12307;DHT22;6216;51.146;7.008;2024-01-11T05:03:41;-1.50;99.90
12307;DHT22;6216;51.146;7.008;2024-01-11T05:06:15;-1.50;99.90
12307;DHT22;6216;51.146;7.008;2024-01-11T05:08:43;-1.60;99.90
12307;DHT22;6216;51.146;7.008;2024-01-11T05:11:18;-1.70;99.90
12307;DHT22;6216;51.146;7.008;2024-01-11T05:13:48;-1.70;99.90
12307;DHT22;6216;51.146;7.008;2024-01-11T05:16:20;-1.60;99.90
12307;DHT22;6216;51.146;7.008;2024-01-11T05:18:49;-1.60;99.90
12307;DHT22;6216;51.146;7.008;2024-01-11T05:21:17;-1.60;99.90
12307;DHT22;6216;51.146;7.008;2024-01-11T05:23:45;-1.60;99.90
12307;DHT22;6216;51.146;7.008;2024-01-11T05:26:14;-1.70;99.90
12307;DHT22;6216;51.146;7.008;2024-01-11T05:28:43;-1.70;99.90
12307;DHT22;6216;51.146;7.008;2024-01-11T05:31:13;-1.80;99.90
12307;DHT22;6216;51.146;7.008;2024-01-11T05:33:43;-1.90;99.90
12307;DHT22;6216;51.146;7.008;2024-01-11T05:36:12;-1.90;99.90
12307;DHT22;6216;51.146;7.008;2024-01-11T05:38:40;-1.90;99.90
12307;DHT22;6216;51.146;7.008;2024-01-11T05:41:08;-1.80;99.90
12307;DHT22;6216;51.146;7.008;2024-01-11T05:43:37;-1.80;99.90
12307;DHT22;6216;51.146;7.008;2024-01-11T05:46:05;-1.90;99.90
12307;DHT22;6216;51.146;7.008;2024-01-11T05:48:35;-1.90;99.90
12307;DHT22;6216;51.146;7.008;2024-01-11T05:51:03;-1.80;99.90
12307;DHT22;6216;51.146;7.008;2024-01-11T05:53:31;-1.80;99.90
12307;DHT22;6216;51.146;7.008;2024-01-11T05:56:06;-1.90;99.90
12307;DHT22;6216;51.146;7.008;2024-01-11T05:58:35;-1.90;99.90
12307;DHT22;6216;51.146;7.008;2024-01-11T06:01:04;-1.80;99.90
12307;DHT22;6216;51.146;7.008;2024-01-11T06:03:32;-1.80;99.90
12307;DHT22;6216;51.146;7.008;2024-01-11T06:06:03;-1.80;99.90
12307;DHT22;6216;51.146;7.008;2024-01-11T06:08:32;-1.90;99.90
12307;DHT22;6216;51.146;7.008;2024-01-11T06:11:00;-1.90;99.90
12307;DHT22;6216;51.146;7.008;2024-01-11T06:13:28;-1.90;99.90
12307;DHT22;6216;51.146;7.008;2024-01-11T06:15:56;-1.90;99.90
12307;DHT22;6216;51.146;7.008;2024-01-11T06:18:24;-2.00;99.90
12307;DHT22;6216;51.146;7.008;2024-01-11T06:20:52;-2.00;99.90
12307;DHT22;6216;51.146;7.008;2024-01-11T06:23:23;-2.00;99.90
12307;DHT22;6216;51.146;7.008;2024-01-11T06:25:51;-2.00;99.90
12307;DHT22;6216;51.146;7.008;2024-01-11T06:28:19;-2.10;99.90
12307;DHT22;6216;51.146;7.008;2024-01-11T06:30:47;-2.10;99.90
12307;DHT22;6216;51.146;7.008;2024-01-11T06:33:15;-2.10;99.90
12307;DHT22;6216;51.146;7.008;2024-01-11T06:35:43;-2.10;99.90
12307;DHT22;6216;51.146;7.008;2024-01-11T06:38:12;-2.10;99.90
12307;DHT22;6216;51.146;7.008;2024-01-11T06:40:41;-2.20;99.90
12307;DHT22;6216;51.146;7.008;2024-01-11T06:43:09;-2.20;99.90
12307;DHT22;6216;51.146;7.008;2024-01-11T06:45:38;-2.10;99.90
12307;DHT22;6216;51.146;7.008;2024-01-11T06:48:06;-2.10;99.90
12307;DHT22;6216;51.146;7.008;2024-01-11T06:50:34;-2.00;99.90
12307;DHT22;6216;51.146;7.008;2024-01-11T06:53:03;-2.00;99.90
12307;DHT22;6216;51.146;7.008;2024-01-11T06:55:31;-2.00;99.90
12307;DHT22;6216;51.146;7.008;2024-01-11T06:58:00;-2.10;99.90
12307;DHT22;6216;51.146;7.008;2024-01-11T07:00:28;-2.20;99.90
12307;DHT22;6216;51.146;7.008;2024-01-11T07:02:56;-2.20;99.90
12307;DHT22;6216;51.146;7.008;2024-01-11T07:05:24;-2.10;99.90
12307;DHT22;6216;51.146;7.008;2024-01-11T07:07:52;-2.10;99.90
12307;DHT22;6216;51.146;7.008;2024-01-11T07:10:20;-2.10;99.90
12307;DHT22;6216;51.146;7.008;2024-01-11T07:12:48;-2.00;99.90
12307;DHT22;6216;51.146;7.008;2024-01-11T07:15:17;-2.10;99.90
12307;DHT22;6216;51.146;7.008;2024-01-11T07:17:45;-2.10;99.90
12307;DHT22;6216;51.146;7.008;2024-01-11T07:20:13;-2.20;99.90
12307;DHT22;6216;51.146;7.008;2024-01-11T07:22:43;-2.20;99.90
12307;DHT22;6216;51.146;7.008;2024-01-11T07:25:11;-2.30;99.90
12307;DHT22;6216;51.146;7.008;2024-01-11T07:27:40;-2.30;99.90
12307;DHT22;6216;51.146;7.008;2024-01-11T07:30:11;-2.30;99.90
12307;DHT22;6216;51.146;7.008;2024-01-11T07:32:40;-2.40;99.90
12307;DHT22;6216;51.146;7.008;2024-01-11T07:35:09;-2.40;99.90
12307;DHT22;6216;51.146;7.008;2024-01-11T07:37:44;-2.40;99.90
12307;DHT22;6216;51.146;7.008;2024-01-11T07:40:12;-2.40;99.90
12307;DHT22;6216;51.146;7.008;2024-01-11T07:42:41;-2.40;99.90
12307;DHT22;6216;51.146;7.008;2024-01-11T07:45:09;-2.30;99.90
12307;DHT22;6216;51.146;7.008;2024-01-11T07:47:38;-2.30;99.90
12307;DHT22;6216;51.146;7.008;2024-01-11T07:50:08;-2.30;99.90
12307;DHT22;6216;51.146;7.008;2024-01-11T07:52:37;-2.30;99.90
12307;DHT22;6216;51.146;7.008;2024-01-11T07:55:06;-2.30;99.90
12307;DHT22;6216;51.146;7.008;2024-01-11T07:57:34;-2.30;99.90
12307;DHT22;6216;51.146;7.008;2024-01-11T08:00:04;-2.30;99.90
12307;DHT22;6216;51.146;7.008;2024-01-11T08:02:33;-2.20;99.90
12307;DHT22;6216;51.146;7.008;2024-01-11T08:05:02;-2.20;99.90
12307;DHT22;6216;51.146;7.008;2024-01-11T08:07:32;-2.00;99.90
12307;DHT22;6216;51.146;7.008;2024-01-11T08:10:00;-1.90;99.90
12307;DHT22;6216;51.146;7.008;2024-01-11T08:12:28;-1.70;99.90
12307;DHT22;6216;51.146;7.008;2024-01-11T08:14:56;-1.40;99.90
12307;DHT22;6216;51.146;7.008;2024-01-11T08:17:24;-1.30;99.90
12307;DHT22;6216;51.146;7.008;2024-01-11T08:19:52;-1.10;99.90
12307;DHT22;6216;51.146;7.008;2024-01-11T08:22:22;-0.90;99.90
12307;DHT22;6216;51.146;7.008;2024-01-11T08:24:55;-0.70;99.90
12307;DHT22;6216;51.146;7.008;2024-01-11T08:27:23;-0.40;99.90
12307;DHT22;6216;51.146;7.008;2024-01-11T08:29:51;-0.30;99.90
12307;DHT22;6216;51.146;7.008;2024-01-11T08:32:19;0.00;99.90
12307;DHT22;6216;51.146;7.008;2024-01-11T08:34:57;0.20;99.90
12307;DHT22;6216;51.146;7.008;2024-01-11T08:37:26;0.40;99.90
12307;DHT22;6216;51.146;7.008;2024-01-11T08:39:55;0.60;99.90
12307;DHT22;6216;51.146;7.008;2024-01-11T08:42:23;1.00;99.90
12307;DHT22;6216;51.146;7.008;2024-01-11T08:44:51;1.30;99.90
12307;DHT22;6216;51.146;7.008;2024-01-11T08:47:19;1.60;99.90
12307;DHT22;6216;51.146;7.008;2024-01-11T08:49:47;2.10;99.90
12307;DHT22;6216;51.146;7.008;2024-01-11T08:52:15;2.50;99.90
12307;DHT22;6216;51.146;7.008;2024-01-11T08:54:43;3.20;99.90
12307;DHT22;6216;51.146;7.008;2024-01-11T08:57:13;4.00;99.20
12307;DHT22;6216;51.146;7.008;2024-01-11T08:59:41;4.80;96.00
12307;DHT22;6216;51.146;7.008;2024-01-11T09:02:09;5.50;94.60
12307;DHT22;6216;51.146;7.008;2024-01-11T09:04:45;6.10;93.20
12307;DHT22;6216;51.146;7.008;2024-01-11T09:07:14;6.30;92.70
12307;DHT22;6216;51.146;7.008;2024-01-11T09:09:42;6.50;92.90
12307;DHT22;6216;51.146;7.008;2024-01-11T09:12:23;6.60;92.00
12307;DHT22;6216;51.146;7.008;2024-01-11T09:14:51;6.30;92.90
12307;DHT22;6216;51.146;7.008;2024-01-11T09:17:19;5.90;93.20
12307;DHT22;6216;51.146;7.008;2024-01-11T09:19:48;5.80;94.40
12307;DHT22;6216;51.146;7.008;2024-01-11T09:22:16;5.50;94.90
12307;DHT22;6216;51.146;7.008;2024-01-11T09:24:44;5.30;95.70
12307;DHT22;6216;51.146;7.008;2024-01-11T09:27:12;5.30;97.50
12307;DHT22;6216;51.146;7.008;2024-01-11T09:29:43;5.30;98.30
12307;DHT22;6216;51.146;7.008;2024-01-11T09:32:12;5.50;99.90
12307;DHT22;6216;51.146;7.008;2024-01-11T09:34:40;5.80;99.90
12307;DHT22;6216;51.146;7.008;2024-01-11T09:37:08;6.10;99.90
12307;DHT22;6216;51.146;7.008;2024-01-11T09:39:36;6.50;97.70
12307;DHT22;6216;51.146;7.008;2024-01-11T09:42:06;6.80;95.30
12307;DHT22;6216;51.146;7.008;2024-01-11T09:44:36;7.40;98.50
12307;DHT22;6216;51.146;7.008;2024-01-11T09:47:09;8.10;96.80
12307;DHT22;6216;51.146;7.008;2024-01-11T09:49:43;9.20;93.40
12307;DHT22;6216;51.146;7.008;2024-01-11T09:52:12;10.40;91.60
12307;DHT22;6216;51.146;7.008;2024-01-11T09:54:41;12.00;87.10
12307;DHT22;6216;51.146;7.008;2024-01-11T09:57:09;13.40;81.80
12307;DHT22;6216;51.146;7.008;2024-01-11T09:59:37;14.30;77.60
12307;DHT22;6216;51.146;7.008;2024-01-11T10:02:10;15.20;73.30
12307;DHT22;6216;51.146;7.008;2024-01-11T10:04:42;16.00;69.70
12307;DHT22;6216;51.146;7.008;2024-01-11T10:07:10;17.00;66.20
12307;DHT22;6216;51.146;7.008;2024-01-11T10:09:38;17.40;62.80
12307;DHT22;6216;51.146;7.008;2024-01-11T10:12:07;18.20;57.60
12307;DHT22;6216;51.146;7.008;2024-01-11T10:14:35;18.80;52.40
12307;DHT22;6216;51.146;7.008;2024-01-11T10:17:04;19.60;49.90
12307;DHT22;6216;51.146;7.008;2024-01-11T10:19:33;19.30;50.90
12307;DHT22;6216;51.146;7.008;2024-01-11T10:22:03;19.60;48.20
12307;DHT22;6216;51.146;7.008;2024-01-11T10:24:31;20.70;47.10
12307;DHT22;6216;51.146;7.008;2024-01-11T10:26:59;21.00;45.30
12307;DHT22;6216;51.146;7.008;2024-01-11T10:29:30;21.70;43.40
12307;DHT22;6216;51.146;7.008;2024-01-11T10:31:58;21.60;39.20
12307;DHT22;6216;51.146;7.008;2024-01-11T10:34:26;21.10;40.50
12307;DHT22;6216;51.146;7.008;2024-01-11T10:36:56;21.60;39.80
12307;DHT22;6216;51.146;7.008;2024-01-11T10:39:25;22.10;38.60
12307;DHT22;6216;51.146;7.008;2024-01-11T10:42:00;22.10;38.10
12307;DHT22;6216;51.146;7.008;2024-01-11T10:44:34;21.60;39.90
12307;DHT22;6216;51.146;7.008;2024-01-11T10:47:04;21.50;40.30
12307;DHT22;6216;51.146;7.008;2024-01-11T10:49:34;21.80;39.60
12307;DHT22;6216;51.146;7.008;2024-01-11T10:52:08;22.90;37.30
12307;DHT22;6216;51.146;7.008;2024-01-11T10:54:37;23.10;35.10
12307;DHT22;6216;51.146;7.008;2024-01-11T10:57:06;23.00;36.30
12307;DHT22;6216;51.146;7.008;2024-01-11T10:59:34;23.00;36.80
12307;DHT22;6216;51.146;7.008;2024-01-11T11:02:05;22.80;36.30
12307;DHT22;6216;51.146;7.008;2024-01-11T11:04:35;22.50;37.10
12307;DHT22;6216;51.146;7.008;2024-01-11T11:07:06;22.60;36.30
12307;DHT22;6216;51.146;7.008;2024-01-11T11:09:35;23.10;36.40
12307;DHT22;6216;51.146;7.008;2024-01-11T11:12:04;23.50;34.90
12307;DHT22;6216;51.146;7.008;2024-01-11T11:14:34;23.30;35.40
12307;DHT22;6216;51.146;7.008;2024-01-11T11:17:03;23.00;34.90
12307;DHT22;6216;51.146;7.008;2024-01-11T11:19:31;23.50;34.80
12307;DHT22;6216;51.146;7.008;2024-01-11T11:22:03;24.50;32.30
12307;DHT22;6216;51.146;7.008;2024-01-11T11:24:35;24.40;32.10
12307;DHT22;6216;51.146;7.008;2024-01-11T11:27:03;24.10;32.60
12307;DHT22;6216;51.146;7.008;2024-01-11T11:29:34;24.40;32.10
12307;DHT22;6216;51.146;7.008;2024-01-11T11:32:02;24.50;30.80
12307;DHT22;6216;51.146;7.008;2024-01-11T11:34:40;24.60;29.60
12307;DHT22;6216;51.146;7.008;2024-01-11T11:37:09;24.80;30.10
12307;DHT22;6216;51.146;7.008;2024-01-11T11:39:39;24.90;30.10
12307;DHT22;6216;51.146;7.008;2024-01-11T11:42:09;24.90;29.90
12307;DHT22;6216;51.146;7.008;2024-01-11T11:44:47;24.30;30.30
12307;DHT22;6216;51.146;7.008;2024-01-11T11:47:19;23.80;30.80
12307;DHT22;6216;51.146;7.008;2024-01-11T11:50:13;23.90;31.30
12307;DHT22;6216;51.146;7.008;2024-01-11T11:52:41;23.80;31.50
12307;DHT22;6216;51.146;7.008;2024-01-11T11:55:12;23.90;31.30
12307;DHT22;6216;51.146;7.008;2024-01-11T11:57:43;24.00;31.30
12307;DHT22;6216;51.146;7.008;2024-01-11T12:00:13;24.80;30.00
12307;DHT22;6216;51.146;7.008;2024-01-11T12:02:43;24.70;29.70
12307;DHT22;6216;51.146;7.008;2024-01-11T12:05:11;24.50;30.20
12307;DHT22;6216;51.146;7.008;2024-01-11T12:07:39;24.60;30.10
12307;DHT22;6216;51.146;7.008;2024-01-11T12:10:07;25.20;29.50
12307;DHT22;6216;51.146;7.008;2024-01-11T12:12:37;25.80;29.00
12307;DHT22;6216;51.146;7.008;2024-01-11T12:15:05;26.20;27.70
12307;DHT22;6216;51.146;7.008;2024-01-11T12:17:34;25.70;27.30
12307;DHT22;6216;51.146;7.008;2024-01-11T12:20:03;24.90;28.30
12307;DHT22;6216;51.146;7.008;2024-01-11T12:22:31;24.20;29.80
12307;DHT22;6216;51.146;7.008;2024-01-11T12:24:59;23.20;32.20
12307;DHT22;6216;51.146;7.008;2024-01-11T12:27:27;23.20;29.80
12307;DHT22;6216;51.146;7.008;2024-01-11T12:29:56;22.90;29.40
12307;DHT22;6216;51.146;7.008;2024-01-11T12:32:26;22.70;29.20
12307;DHT22;6216;51.146;7.008;2024-01-11T12:34:54;23.20;29.30
12307;DHT22;6216;51.146;7.008;2024-01-11T12:37:22;23.20;28.90
12307;DHT22;6216;51.146;7.008;2024-01-11T12:39:57;22.50;29.10
12307;DHT22;6216;51.146;7.008;2024-01-11T12:42:25;22.80;30.30
12307;DHT22;6216;51.146;7.008;2024-01-11T12:44:53;23.60;29.40
12307;DHT22;6216;51.146;7.008;2024-01-11T12:47:26;23.80;29.10
12307;DHT22;6216;51.146;7.008;2024-01-11T12:49:54;24.00;29.50
12307;DHT22;6216;51.146;7.008;2024-01-11T12:52:22;24.70;28.90
12307;DHT22;6216;51.146;7.008;2024-01-11T12:54:53;24.90;28.90
12307;DHT22;6216;51.146;7.008;2024-01-11T12:57:23;25.10;28.70
12307;DHT22;6216;51.146;7.008;2024-01-11T12:59:51;25.20;28.60
12307;DHT22;6216;51.146;7.008;2024-01-11T13:02:19;25.40;28.40
12307;DHT22;6216;51.146;7.008;2024-01-11T13:04:50;25.60;28.10
12307;DHT22;6216;51.146;7.008;2024-01-11T13:07:19;25.50;27.90
12307;DHT22;6216;51.146;7.008;2024-01-11T13:09:49;25.40;28.10
12307;DHT22;6216;51.146;7.008;2024-01-11T13:12:17;25.80;28.10
12307;DHT22;6216;51.146;7.008;2024-01-11T13:14:47;25.70;27.80
12307;DHT22;6216;51.146;7.008;2024-01-11T13:17:15;25.90;27.70
12307;DHT22;6216;51.146;7.008;2024-01-11T13:19:43;26.50;27.30
12307;DHT22;6216;51.146;7.008;2024-01-11T13:22:13;26.40;27.10
12307;DHT22;6216;51.146;7.008;2024-01-11T13:24:40;26.40;27.00
12307;DHT22;6216;51.146;7.008;2024-01-11T13:27:09;26.20;27.10
12307;DHT22;6216;51.146;7.008;2024-01-11T13:29:36;26.00;27.00
12307;DHT22;6216;51.146;7.008;2024-01-11T13:32:05;26.10;27.20
12307;DHT22;6216;51.146;7.008;2024-01-11T13:34:33;26.80;26.30
12307;DHT22;6216;51.146;7.008;2024-01-11T13:37:01;26.70;26.30
12307;DHT22;6216;51.146;7.008;2024-01-11T13:39:30;26.20;26.30
12307;DHT22;6216;51.146;7.008;2024-01-11T13:41:58;25.70;26.50
12307;DHT22;6216;51.146;7.008;2024-01-11T13:44:26;25.80;26.30
12307;DHT22;6216;51.146;7.008;2024-01-11T13:46:56;26.20;26.20
12307;DHT22;6216;51.146;7.008;2024-01-11T13:49:24;26.20;25.60
12307;DHT22;6216;51.146;7.008;2024-01-11T13:51:52;26.20;25.40
12307;DHT22;6216;51.146;7.008;2024-01-11T13:54:27;26.50;24.70
12307;DHT22;6216;51.146;7.008;2024-01-11T13:56:56;26.40;24.70
12307;DHT22;6216;51.146;7.008;2024-01-11T13:59:24;26.40;24.40
12307;DHT22;6216;51.146;7.008;2024-01-11T14:01:52;26.30;24.60
12307;DHT22;6216;51.146;7.008;2024-01-11T14:04:20;26.40;24.10
12307;DHT22;6216;51.146;7.008;2024-01-11T14:06:50;26.10;23.90
12307;DHT22;6216;51.146;7.008;2024-01-11T14:09:19;25.90;23.90
12307;DHT22;6216;51.146;7.008;2024-01-11T14:11:48;25.50;23.90
12307;DHT22;6216;51.146;7.008;2024-01-11T14:14:18;25.20;23.90
12307;DHT22;6216;51.146;7.008;2024-01-11T14:16:47;25.20;23.70
12307;DHT22;6216;51.146;7.008;2024-01-11T14:19:15;24.50;24.20
12307;DHT22;6216;51.146;7.008;2024-01-11T14:21:43;24.30;24.30
12307;DHT22;6216;51.146;7.008;2024-01-11T14:24:11;24.30;24.10
12307;DHT22;6216;51.146;7.008;2024-01-11T14:26:40;23.90;24.10
12307;DHT22;6216;51.146;7.008;2024-01-11T14:29:10;23.70;24.20
12307;DHT22;6216;51.146;7.008;2024-01-11T14:31:40;23.20;24.30
12307;DHT22;6216;51.146;7.008;2024-01-11T14:34:09;22.90;24.70
12307;DHT22;6216;51.146;7.008;2024-01-11T14:36:38;22.80;24.70
12307;DHT22;6216;51.146;7.008;2024-01-11T14:39:07;22.80;24.50
12307;DHT22;6216;51.146;7.008;2024-01-11T14:41:36;22.60;24.30
12307;DHT22;6216;51.146;7.008;2024-01-11T14:44:05;22.30;24.40
12307;DHT22;6216;51.146;7.008;2024-01-11T14:46:33;21.60;24.60
12307;DHT22;6216;51.146;7.008;2024-01-11T14:49:02;20.50;25.00
12307;DHT22;6216;51.146;7.008;2024-01-11T14:51:34;19.90;25.30
12307;DHT22;6216;51.146;7.008;2024-01-11T14:54:04;19.40;25.80
12307;DHT22;6216;51.146;7.008;2024-01-11T14:56:32;18.60;26.20
12307;DHT22;6216;51.146;7.008;2024-01-11T14:59:02;18.10;26.40
12307;DHT22;6216;51.146;7.008;2024-01-11T15:01:30;16.90;26.80
12307;DHT22;6216;51.146;7.008;2024-01-11T15:03:59;15.30;27.30
12307;DHT22;6216;51.146;7.008;2024-01-11T15:06:28;13.70;29.40
12307;DHT22;6216;51.146;7.008;2024-01-11T15:08:56;12.40;31.10
12307;DHT22;6216;51.146;7.008;2024-01-11T15:11:24;10.90;32.90
12307;DHT22;6216;51.146;7.008;2024-01-11T15:13:53;9.70;34.00
12307;DHT22;6216;51.146;7.008;2024-01-11T15:16:21;8.90;35.60
12307;DHT22;6216;51.146;7.008;2024-01-11T15:18:49;8.30;37.50
12307;DHT22;6216;51.146;7.008;2024-01-11T15:21:17;7.90;38.00
12307;DHT22;6216;51.146;7.008;2024-01-11T15:23:47;7.50;39.00
12307;DHT22;6216;51.146;7.008;2024-01-11T15:26:15;7.30;39.70
12307;DHT22;6216;51.146;7.008;2024-01-11T15:28:43;7.00;40.70
12307;DHT22;6216;51.146;7.008;2024-01-11T15:31:11;6.70;41.40
12307;DHT22;6216;51.146;7.008;2024-01-11T15:33:39;6.60;42.40
12307;DHT22;6216;51.146;7.008;2024-01-11T15:36:08;6.60;43.40
12307;DHT22;6216;51.146;7.008;2024-01-11T15:38:36;6.50;43.70
12307;DHT22;6216;51.146;7.008;2024-01-11T15:41:06;6.20;44.40
12307;DHT22;6216;51.146;7.008;2024-01-11T15:43:34;6.40;45.70
12307;DHT22;6216;51.146;7.008;2024-01-11T15:46:02;6.10;46.10
12307;DHT22;6216;51.146;7.008;2024-01-11T15:48:31;5.70;47.20
12307;DHT22;6216;51.146;7.008;2024-01-11T15:50:59;5.60;47.60
12307;DHT22;6216;51.146;7.008;2024-01-11T15:53:28;5.70;46.60
12307;DHT22;6216;51.146;7.008;2024-01-11T15:55:56;5.60;47.40
12307;DHT22;6216;51.146;7.008;2024-01-11T15:58:26;5.40;48.10